createdAt,value
2023-05-08T00:02:12.025Z,7.90
2023-05-08T00:04:38.665Z,7.90
2023-05-08T00:07:05.346Z,7.90
2023-05-08T00:09:31.969Z,7.90
2023-05-08T00:11:58.594Z,7.90
2023-05-08T00:14:25.296Z,7.90
2023-05-08T00:16:52.027Z,7.90
2023-05-08T00:19:18.626Z,7.90
2023-05-08T00:21:45.226Z,7.90
2023-05-08T00:24:11.816Z,7.80
2023-05-08T00:26:38.412Z,7.70
2023-05-08T00:29:06.546Z,7.70
2023-05-08T00:31:33.909Z,7.70
2023-05-08T00:34:00.684Z,7.50
2023-05-08T00:36:27.477Z,7.50
2023-05-08T00:38:54.339Z,7.60
2023-05-08T00:41:21.670Z,7.80
2023-05-08T00:43:48.343Z,7.90
2023-05-08T00:46:15.247Z,7.90
2023-05-08T00:48:43.002Z,8.00
2023-05-08T00:51:11.244Z,8.10
2023-05-08T00:53:40.658Z,8.10
2023-05-08T00:56:11.825Z,8.00
2023-05-08T00:58:39.922Z,7.80
2023-05-08T01:01:07.738Z,7.70
2023-05-08T01:03:36.568Z,7.80
2023-05-08T01:06:03.970Z,7.80
2023-05-08T01:08:31.826Z,7.90
2023-05-08T01:11:06.677Z,8.00
2023-05-08T01:14:12.498Z,8.00
2023-05-08T01:16:45.075Z,8.00
2023-05-08T01:19:39.466Z,8.00
2023-05-08T01:22:36.016Z,8.00
2023-05-08T01:25:32.752Z,8.10
2023-05-08T01:28:37.054Z,8.20
2023-05-08T01:31:22.284Z,8.30
2023-05-08T01:34:10.494Z,8.30
2023-05-08T01:36:50.208Z,8.30
2023-05-08T01:39:28.692Z,8.30
2023-05-08T01:42:21.640Z,8.20
2023-05-08T01:44:54.033Z,8.20
2023-05-08T01:47:25.756Z,8.20
2023-05-08T01:50:03.542Z,8.30
2023-05-08T01:52:35.350Z,8.20
2023-05-08T01:55:08.707Z,8.10
2023-05-08T01:57:39.934Z,8.20
2023-05-08T02:00:08.263Z,8.20
2023-05-08T02:02:38.101Z,8.20
2023-05-08T02:05:07.348Z,8.10
2023-05-08T02:07:37.850Z,8.10
2023-05-08T02:10:06.286Z,8.30
2023-05-08T02:12:33.829Z,8.30
2023-05-08T02:15:02.536Z,8.40
2023-05-08T02:17:31.799Z,8.30
2023-05-08T02:20:00.831Z,8.30
2023-05-08T02:22:28.657Z,8.30
2023-05-08T02:24:56.381Z,8.30
2023-05-08T02:27:24.319Z,8.40
2023-05-08T02:29:52.016Z,8.30
2023-05-08T02:32:20.839Z,8.30
2023-05-08T02:35:02.428Z,8.30
2023-05-08T02:37:31.033Z,8.30
2023-05-08T02:39:58.821Z,8.30
2023-05-08T02:42:25.659Z,8.30
2023-05-08T02:44:52.385Z,8.30
2023-05-08T02:47:42.322Z,8.30
2023-05-08T02:50:26.921Z,8.30
2023-05-08T02:53:03.141Z,8.30
2023-05-08T02:55:54.916Z,8.20
2023-05-08T02:58:31.072Z,8.20
2023-05-08T03:01:06.526Z,8.20
2023-05-08T03:03:46.082Z,8.30
2023-05-08T03:06:20.705Z,8.30
2023-05-08T03:08:49.022Z,8.30
2023-05-08T03:11:21.553Z,8.30
2023-05-08T03:13:51.367Z,8.20
2023-05-08T03:16:23.630Z,8.20
2023-05-08T03:19:07.238Z,8.20
2023-05-08T03:21:35.258Z,8.20
2023-05-08T03:24:03.779Z,8.10
2023-05-08T03:26:30.983Z,8.10
2023-05-08T03:28:58.346Z,8.00
2023-05-08T03:31:32.132Z,8.00
2023-05-08T03:33:59.866Z,7.90
2023-05-08T03:36:27.015Z,7.90
2023-05-08T03:38:54.017Z,7.90
2023-05-08T03:41:22.451Z,7.80
2023-05-08T03:43:50.046Z,7.80
2023-05-08T03:46:17.180Z,7.70
2023-05-08T03:48:45.565Z,7.60
2023-05-08T03:51:12.609Z,7.60
2023-05-08T03:53:39.722Z,7.60
2023-05-08T03:56:06.637Z,7.70
2023-05-08T03:59:00.485Z,7.60
2023-05-08T04:01:40.610Z,7.50
2023-05-08T04:04:18.282Z,7.50
2023-05-08T04:06:51.384Z,7.40
2023-05-08T04:09:31.186Z,7.30
2023-05-08T04:12:17.851Z,7.30
2023-05-08T04:14:56.530Z,7.30
2023-05-08T04:17:36.157Z,7.40
2023-05-08T04:20:08.061Z,7.50
2023-05-08T04:22:38.597Z,7.50
2023-05-08T04:25:07.302Z,7.50
2023-05-08T04:27:35.574Z,7.40
2023-05-08T04:30:02.676Z,7.40
2023-05-08T04:32:33.551Z,7.40
2023-05-08T04:35:00.730Z,7.50
2023-05-08T04:37:29.398Z,7.50
2023-05-08T04:39:59.254Z,7.60
2023-05-08T04:42:27.002Z,7.60
2023-05-08T04:44:56.989Z,7.70
2023-05-08T04:47:24.249Z,7.70
2023-05-08T04:49:51.476Z,7.80
2023-05-08T04:52:18.133Z,7.80
2023-05-08T04:54:44.784Z,7.90
2023-05-08T04:57:11.568Z,7.90
2023-05-08T04:59:38.352Z,8.00
2023-05-08T05:02:08.189Z,8.00
2023-05-08T05:04:36.922Z,8.10
2023-05-08T05:07:04.990Z,8.00
2023-05-08T05:09:34.794Z,8.00
2023-05-08T05:12:01.421Z,8.10
2023-05-08T05:14:30.535Z,8.20
2023-05-08T05:16:57.214Z,8.30
2023-05-08T05:19:23.854Z,8.40
2023-05-08T05:21:50.617Z,8.50
2023-05-08T05:24:17.250Z,8.60
2023-05-08T05:26:43.876Z,8.70
2023-05-08T05:29:10.546Z,8.80
2023-05-08T05:31:37.299Z,8.80
2023-05-08T05:34:04.062Z,8.90
2023-05-08T05:36:30.731Z,8.90
2023-05-08T05:38:58.275Z,9.00
2023-05-08T05:41:25.827Z,9.00
2023-05-08T05:43:52.817Z,9.10
2023-05-08T05:46:19.463Z,9.20
2023-05-08T05:48:46.163Z,9.30
2023-05-08T05:51:13.449Z,9.40
2023-05-08T05:53:40.409Z,9.40
2023-05-08T05:56:07.312Z,9.50
2023-05-08T05:58:34.318Z,9.50
2023-05-08T06:01:01.188Z,9.60
2023-05-08T06:03:28.467Z,9.70
2023-05-08T06:05:56.437Z,9.80
2023-05-08T06:08:23.285Z,9.90
2023-05-08T06:10:49.901Z,10.00
2023-05-08T06:13:16.821Z,10.00
2023-05-08T06:15:43.679Z,10.10
2023-05-08T06:18:10.312Z,10.10
2023-05-08T06:20:38.566Z,10.20
2023-05-08T06:23:06.023Z,10.20
2023-05-08T06:25:32.820Z,10.30
2023-05-08T06:27:59.473Z,10.30
2023-05-08T06:30:26.156Z,10.40
2023-05-08T06:32:52.899Z,10.50
2023-05-08T06:35:19.792Z,10.60
2023-05-08T06:37:46.906Z,10.60
2023-05-08T06:40:13.950Z,10.70
2023-05-08T06:42:41.073Z,10.80
2023-05-08T06:45:09.315Z,11.00
2023-05-08T06:47:36.168Z,11.00
2023-05-08T06:50:03.269Z,11.20
2023-05-08T06:52:29.974Z,11.30
2023-05-08T06:54:56.620Z,11.30
2023-05-08T06:57:24.233Z,11.40
2023-05-08T06:59:50.840Z,11.50
2023-05-08T07:02:17.441Z,11.70
2023-05-08T07:04:44.916Z,11.70
2023-05-08T07:07:12.759Z,11.80
2023-05-08T07:09:39.606Z,11.80
2023-05-08T07:12:06.388Z,12.00
2023-05-08T07:14:32.979Z,12.00
2023-05-08T07:17:06.639Z,12.10
2023-05-08T07:19:36.097Z,12.30
2023-05-08T07:22:03.033Z,12.40
2023-05-08T07:24:29.702Z,12.50
2023-05-08T07:26:56.515Z,12.70
2023-05-08T07:29:23.144Z,12.80
2023-05-08T07:31:51.905Z,12.70
2023-05-08T07:34:18.722Z,12.80
2023-05-08T07:36:45.542Z,12.80
2023-05-08T07:39:12.363Z,12.90
2023-05-08T07:41:40.896Z,13.00
2023-05-08T07:44:07.919Z,13.10
2023-05-08T07:46:34.727Z,13.20
2023-05-08T07:49:01.566Z,13.40
2023-05-08T07:51:28.803Z,13.60
2023-05-08T07:53:55.605Z,13.80
2023-05-08T07:56:23.053Z,13.80
2023-05-08T07:58:49.734Z,13.80
2023-05-08T08:01:18.116Z,13.80
2023-05-08T08:03:48.347Z,13.90
2023-05-08T08:06:15.082Z,14.00
2023-05-08T08:08:41.676Z,14.10
2023-05-08T08:11:08.668Z,14.20
2023-05-08T08:13:35.360Z,14.20
2023-05-08T08:16:04.084Z,14.30
2023-05-08T08:18:34.376Z,14.30
2023-05-08T08:21:01.138Z,14.50
2023-05-08T08:23:27.762Z,14.60
2023-05-08T08:25:54.374Z,14.70
2023-05-08T08:28:21.061Z,14.90
2023-05-08T08:30:47.729Z,15.10
2023-05-08T08:33:15.343Z,15.10
2023-05-08T08:35:42.918Z,15.20
2023-05-08T08:38:09.557Z,15.50
2023-05-08T08:40:41.904Z,15.60
2023-05-08T08:43:09.976Z,15.70
2023-05-08T08:45:37.513Z,15.70
2023-05-08T08:48:05.209Z,15.80
2023-05-08T08:50:32.945Z,16.00
2023-05-08T08:53:19.045Z,16.00
2023-05-08T08:55:50.294Z,16.10
2023-05-08T08:58:40.822Z,16.30
2023-05-08T09:01:09.381Z,16.40
2023-05-08T09:03:36.128Z,16.50
2023-05-08T09:06:03.077Z,16.90
2023-05-08T09:08:29.876Z,17.10
2023-05-08T09:10:56.602Z,17.70
2023-05-08T09:13:23.303Z,17.70
2023-05-08T09:15:50.574Z,18.10
2023-05-08T09:18:17.588Z,18.40
2023-05-08T09:20:44.946Z,18.70
2023-05-08T09:23:12.122Z,18.90
2023-05-08T09:25:43.052Z,19.10
2023-05-08T09:28:20.942Z,19.30
2023-05-08T09:30:58.275Z,19.80
2023-05-08T09:33:27.011Z,20.00
2023-05-08T09:35:56.948Z,20.50
2023-05-08T09:38:40.483Z,20.10
2023-05-08T09:41:12.458Z,20.10
2023-05-08T09:43:39.263Z,20.10
2023-05-08T09:46:23.211Z,20.20
2023-05-08T09:48:51.362Z,20.80
2023-05-08T09:51:18.353Z,21.10
2023-05-08T09:53:45.298Z,21.50
2023-05-08T09:56:12.178Z,21.60
2023-05-08T09:58:42.231Z,21.80
2023-05-08T10:01:27.017Z,21.70
2023-05-08T10:03:53.787Z,21.60
2023-05-08T10:06:20.416Z,21.50
2023-05-08T10:08:48.210Z,21.50
2023-05-08T10:11:18.924Z,21.30
2023-05-08T10:13:46.125Z,21.10
2023-05-08T10:16:17.051Z,21.30
2023-05-08T10:18:48.501Z,20.90
2023-05-08T10:21:15.907Z,21.50
2023-05-08T10:23:43.075Z,21.70
2023-05-08T10:26:14.448Z,21.70
2023-05-08T10:28:53.898Z,22.00
2023-05-08T10:31:22.270Z,22.40
2023-05-08T10:33:50.400Z,22.70
2023-05-08T10:36:17.080Z,22.40
2023-05-08T10:38:43.661Z,22.30
2023-05-08T10:41:10.799Z,22.80
2023-05-08T10:43:39.589Z,23.80
2023-05-08T10:46:09.274Z,23.60
2023-05-08T10:48:42.833Z,23.40
2023-05-08T10:51:21.391Z,23.40
2023-05-08T10:53:53.708Z,23.80
2023-05-08T10:56:26.122Z,24.00
2023-05-08T10:58:56.494Z,23.40
2023-05-08T11:01:23.355Z,22.90
2023-05-08T11:03:52.947Z,23.20
2023-05-08T11:06:38.149Z,23.90
2023-05-08T11:09:04.711Z,23.20
2023-05-08T11:11:33.377Z,23.40
2023-05-08T11:14:10.746Z,23.00
2023-05-08T11:17:00.641Z,23.10
2023-05-08T11:19:27.838Z,23.90
2023-05-08T11:22:12.691Z,23.60
2023-05-08T11:24:39.828Z,24.40
2023-05-08T11:27:06.494Z,24.60
2023-05-08T11:29:33.109Z,24.90
2023-05-08T11:31:59.802Z,24.60
2023-05-08T11:34:35.519Z,24.60
2023-05-08T11:37:02.176Z,23.80
2023-05-08T11:39:28.724Z,24.20
2023-05-08T11:41:55.286Z,24.60
2023-05-08T11:44:22.505Z,24.20
2023-05-08T11:46:51.156Z,24.40
2023-05-08T11:49:21.487Z,24.40
2023-05-08T11:51:55.020Z,23.20
2023-05-08T11:54:22.166Z,23.30
2023-05-08T11:56:49.269Z,23.50
2023-05-08T11:59:16.759Z,22.80
2023-05-08T12:01:48.529Z,22.10
2023-05-08T12:04:23.317Z,21.90
2023-05-08T12:06:51.578Z,21.80
2023-05-08T12:09:20.341Z,21.80
2023-05-08T12:11:47.022Z,21.40
2023-05-08T12:14:17.147Z,21.50
2023-05-08T12:16:44.109Z,21.80
2023-05-08T12:19:12.586Z,22.10
2023-05-08T12:21:45.369Z,22.10
2023-05-08T12:24:12.124Z,22.40
2023-05-08T12:26:39.075Z,22.30
2023-05-08T12:29:07.512Z,22.00
2023-05-08T12:31:38.036Z,21.70
2023-05-08T12:34:06.096Z,21.70
2023-05-08T12:36:36.459Z,21.80
2023-05-08T12:39:11.310Z,21.90
2023-05-08T12:41:51.826Z,22.30
2023-05-08T12:44:25.965Z,22.40
2023-05-08T12:46:54.260Z,22.10
2023-05-08T12:49:31.591Z,22.10
2023-05-08T12:52:18.034Z,22.10
2023-05-08T12:54:49.112Z,22.10
2023-05-08T12:57:21.278Z,22.50
2023-05-08T12:59:47.900Z,23.40
2023-05-08T13:02:16.681Z,24.10
2023-05-08T13:04:44.692Z,24.60
2023-05-08T13:07:11.648Z,25.30
2023-05-08T13:09:39.044Z,25.60
2023-05-08T13:12:06.873Z,25.20
2023-05-08T13:14:33.471Z,25.10
2023-05-08T13:17:00.446Z,26.00
2023-05-08T13:19:27.628Z,25.60
2023-05-08T13:21:54.346Z,24.90
2023-05-08T13:24:20.959Z,24.30
2023-05-08T13:26:47.561Z,24.50
2023-05-08T13:29:14.170Z,24.50
2023-05-08T13:31:40.817Z,24.40
2023-05-08T13:34:07.410Z,25.10
2023-05-08T13:36:33.993Z,25.90
2023-05-08T13:39:00.804Z,26.40
2023-05-08T13:41:27.420Z,26.30
2023-05-08T13:43:54.019Z,26.30
2023-05-08T13:46:20.759Z,25.50
2023-05-08T13:48:47.376Z,25.20
2023-05-08T13:51:14.044Z,26.40
2023-05-08T13:53:40.698Z,27.30
2023-05-08T13:56:07.483Z,26.90
2023-05-08T13:58:34.115Z,25.10
2023-05-08T14:01:10.414Z,24.70
2023-05-08T14:03:44.637Z,24.00
2023-05-08T14:06:11.347Z,23.80
2023-05-08T14:08:45.221Z,23.80
2023-05-08T14:11:13.288Z,23.60
2023-05-08T14:13:39.883Z,23.50
2023-05-08T14:16:08.134Z,23.40
2023-05-08T14:18:34.759Z,23.20
2023-05-08T14:21:01.347Z,23.20
2023-05-08T14:23:28.008Z,22.90
2023-05-08T14:25:54.575Z,23.60
2023-05-08T14:28:21.221Z,23.40
2023-05-08T14:30:47.806Z,24.10
2023-05-08T14:33:15.592Z,25.00
2023-05-08T14:35:43.272Z,24.80
2023-05-08T14:38:13.022Z,24.50
2023-05-08T14:40:39.688Z,24.80
2023-05-08T14:43:06.562Z,24.90
2023-05-08T14:45:33.162Z,25.80
2023-05-08T14:48:00.287Z,25.60
2023-05-08T14:50:27.758Z,25.80
2023-05-08T14:52:54.766Z,26.40
2023-05-08T14:55:22.071Z,25.30
2023-05-08T14:57:49.409Z,25.10
2023-05-08T15:00:17.706Z,25.90
2023-05-08T15:02:44.856Z,25.90
2023-05-08T15:05:19.223Z,26.10
2023-05-08T15:07:47.345Z,26.40
2023-05-08T15:10:13.938Z,25.60
2023-05-08T15:12:40.766Z,25.60
2023-05-08T15:15:07.733Z,26.40
2023-05-08T15:17:36.412Z,27.00
2023-05-08T15:20:04.281Z,26.90
2023-05-08T15:22:31.269Z,25.90
2023-05-08T15:25:02.314Z,25.90
2023-05-08T15:27:29.841Z,26.40
2023-05-08T15:29:57.011Z,26.30
2023-05-08T15:32:24.095Z,25.80
2023-05-08T15:34:51.026Z,24.50
2023-05-08T15:37:17.629Z,24.40
2023-05-08T15:39:44.298Z,24.80
2023-05-08T15:42:10.989Z,24.30
2023-05-08T15:44:54.002Z,23.50
2023-05-08T15:47:22.983Z,23.20
2023-05-08T15:49:50.462Z,22.80
2023-05-08T15:52:18.660Z,22.20
2023-05-08T15:54:49.489Z,22.30
2023-05-08T15:57:16.741Z,22.50
2023-05-08T15:59:43.437Z,22.40
2023-05-08T16:02:10.075Z,22.50
2023-05-08T16:04:36.732Z,22.10
2023-05-08T16:07:04.278Z,22.20
2023-05-08T16:09:31.000Z,22.30
2023-05-08T16:11:57.816Z,22.40
2023-05-08T16:14:24.416Z,22.10
2023-05-08T16:16:51.006Z,22.20
2023-05-08T16:19:17.598Z,22.40
2023-05-08T16:21:47.785Z,22.50
2023-05-08T16:24:14.616Z,22.20
2023-05-08T16:26:41.274Z,22.40
2023-05-08T16:29:07.883Z,22.40
2023-05-08T16:31:34.660Z,22.30
2023-05-08T16:34:01.310Z,22.40
2023-05-08T16:36:28.025Z,22.30
2023-05-08T16:38:54.710Z,22.20
2023-05-08T16:41:21.463Z,21.90
2023-05-08T16:43:48.132Z,22.00
2023-05-08T16:46:14.817Z,21.90
2023-05-08T16:48:42.212Z,21.60
2023-05-08T16:51:08.883Z,21.60
2023-05-08T16:53:35.501Z,21.60
2023-05-08T16:56:02.228Z,21.40
2023-05-08T16:58:28.978Z,21.30
2023-05-08T17:00:55.629Z,21.20
2023-05-08T17:03:22.503Z,21.10
2023-05-08T17:05:49.325Z,20.90
2023-05-08T17:08:16.055Z,20.80
2023-05-08T17:10:42.625Z,20.70
2023-05-08T17:13:09.321Z,20.70
2023-05-08T17:15:35.969Z,20.70
2023-05-08T17:18:02.710Z,20.70
2023-05-08T17:20:29.358Z,20.40
2023-05-08T17:22:56.037Z,20.40
2023-05-08T17:25:22.734Z,20.50
2023-05-08T17:27:49.456Z,20.40
2023-05-08T17:30:16.884Z,20.30
2023-05-08T17:32:43.813Z,20.30
2023-05-08T17:35:10.500Z,20.20
2023-05-08T17:37:37.534Z,20.20
2023-05-08T17:40:04.495Z,20.10
2023-05-08T17:42:31.344Z,20.00
2023-05-08T17:44:57.995Z,20.00
2023-05-08T17:47:24.610Z,19.90
2023-05-08T17:49:51.264Z,19.70
2023-05-08T17:52:17.965Z,19.70
2023-05-08T17:54:44.550Z,19.60
2023-05-08T17:57:11.131Z,19.40
2023-05-08T17:59:37.786Z,19.20
2023-05-08T18:02:04.442Z,19.00
2023-05-08T18:04:31.072Z,18.90
2023-05-08T18:06:59.238Z,18.60
2023-05-08T18:09:25.814Z,18.50
2023-05-08T18:11:52.444Z,18.40
2023-05-08T18:14:19.053Z,18.20
2023-05-08T18:16:45.729Z,18.10
2023-05-08T18:19:12.305Z,18.00
2023-05-08T18:21:38.974Z,17.80
2023-05-08T18:24:05.998Z,17.60
2023-05-08T18:26:32.587Z,17.60
2023-05-08T18:28:59.240Z,17.50
2023-05-08T18:31:25.889Z,17.30
2023-05-08T18:33:52.520Z,17.10
2023-05-08T18:36:19.183Z,17.00
2023-05-08T18:38:45.816Z,16.90
2023-05-08T18:41:12.621Z,16.70
2023-05-08T18:43:39.233Z,16.60
2023-05-08T18:46:13.443Z,16.50
2023-05-08T18:48:43.627Z,16.40
2023-05-08T18:51:12.695Z,16.30
2023-05-08T18:53:40.553Z,16.20
2023-05-08T18:56:07.346Z,16.00
2023-05-08T18:58:34.059Z,15.90
2023-05-08T19:01:01.249Z,15.80
2023-05-08T19:03:28.026Z,15.70
2023-05-08T19:05:55.260Z,15.60
2023-05-08T19:08:21.905Z,15.50
2023-05-08T19:10:48.573Z,15.50
2023-05-08T19:13:15.368Z,15.30
2023-05-08T19:15:42.050Z,15.20
2023-05-08T19:18:09.138Z,15.10
2023-05-08T19:20:35.893Z,15.00
2023-05-08T19:23:02.482Z,14.90
2023-05-08T19:25:29.101Z,14.80
2023-05-08T19:27:56.476Z,14.80
2023-05-08T19:30:23.082Z,14.70
2023-05-08T19:32:49.860Z,14.60
2023-05-08T19:35:16.479Z,14.70
2023-05-08T19:37:43.127Z,14.80
2023-05-08T19:40:10.319Z,15.00
2023-05-08T19:42:36.915Z,15.20
2023-05-08T19:45:03.928Z,15.50
2023-05-08T19:47:30.606Z,15.80
2023-05-08T19:49:57.187Z,15.90
2023-05-08T19:52:23.794Z,15.80
2023-05-08T19:54:50.488Z,15.70
2023-05-08T19:57:17.286Z,15.70
2023-05-08T19:59:43.927Z,15.70
2023-05-08T20:02:10.579Z,15.70
2023-05-08T20:04:54.393Z,15.60
2023-05-08T20:07:23.816Z,15.40
2023-05-08T20:09:51.326Z,15.10
2023-05-08T20:12:17.958Z,14.90
2023-05-08T20:14:44.610Z,14.80
2023-05-08T20:17:11.258Z,14.80
2023-05-08T20:19:37.986Z,14.80
2023-05-08T20:22:04.658Z,14.90
2023-05-08T20:24:31.262Z,14.80
2023-05-08T20:26:58.035Z,14.70
2023-05-08T20:29:24.860Z,14.40
2023-05-08T20:32:08.090Z,14.30
2023-05-08T20:34:34.868Z,14.10
2023-05-08T20:37:03.623Z,14.00
2023-05-08T20:39:30.205Z,13.80
2023-05-08T20:41:56.879Z,13.70
2023-05-08T20:44:23.472Z,13.60
2023-05-08T20:46:51.227Z,13.50
2023-05-08T20:49:17.865Z,13.30
2023-05-08T20:51:44.460Z,13.30
2023-05-08T20:54:11.168Z,13.10
2023-05-08T20:56:37.792Z,13.10
2023-05-08T20:59:04.406Z,12.90
2023-05-08T21:01:31.044Z,12.90
2023-05-08T21:03:57.703Z,12.80
2023-05-08T21:06:24.989Z,12.60
2023-05-08T21:08:51.567Z,12.50
2023-05-08T21:11:18.236Z,12.40
2023-05-08T21:13:45.120Z,12.30
2023-05-08T21:16:11.939Z,12.40
2023-05-08T21:18:38.689Z,12.60
2023-05-08T21:21:17.327Z,12.90
2023-05-08T21:23:43.972Z,13.10
2023-05-08T21:26:11.691Z,13.20
2023-05-08T21:28:38.327Z,13.30
2023-05-08T21:31:05.734Z,13.30
2023-05-08T21:33:33.758Z,13.40
2023-05-08T21:36:00.684Z,13.60
2023-05-08T21:38:27.337Z,13.80
2023-05-08T21:40:53.967Z,13.90
2023-05-08T21:43:20.565Z,14.10
2023-05-08T21:45:47.328Z,14.10
2023-05-08T21:48:13.957Z,14.20
2023-05-08T21:50:40.590Z,14.20
2023-05-08T21:53:07.387Z,14.20
2023-05-08T21:55:34.117Z,14.20
2023-05-08T21:58:00.808Z,14.20
2023-05-08T22:00:27.426Z,14.20
2023-05-08T22:02:54.117Z,14.30
2023-05-08T22:05:22.374Z,14.40
2023-05-08T22:07:49.140Z,14.50
2023-05-08T22:10:15.914Z,14.50
2023-05-08T22:12:42.636Z,14.50
2023-05-08T22:15:21.682Z,14.50
2023-05-08T22:17:56.037Z,14.60
2023-05-08T22:20:22.835Z,14.60
2023-05-08T22:22:49.555Z,14.60
2023-05-08T22:25:16.333Z,14.60
2023-05-08T22:27:43.007Z,14.60
2023-05-08T22:30:09.804Z,14.60
2023-05-08T22:32:36.736Z,14.70
2023-05-08T22:35:03.461Z,14.70
2023-05-08T22:37:30.381Z,14.70
2023-05-08T22:39:57.026Z,14.80
2023-05-08T22:42:24.233Z,14.80
2023-05-08T22:44:51.296Z,14.70
2023-05-08T22:47:18.153Z,14.70
2023-05-08T22:49:45.051Z,14.60
2023-05-08T22:52:11.652Z,14.60
2023-05-08T22:54:38.276Z,14.60
2023-05-08T22:57:04.935Z,14.70
2023-05-08T22:59:31.552Z,14.70
2023-05-08T23:01:58.203Z,14.60
2023-05-08T23:04:24.916Z,14.60
2023-05-08T23:06:51.548Z,14.60
2023-05-08T23:09:18.175Z,14.60
2023-05-08T23:11:44.768Z,14.60
2023-05-08T23:14:11.386Z,14.60
2023-05-08T23:16:38.042Z,14.50
2023-05-08T23:19:05.014Z,14.50
2023-05-08T23:21:32.089Z,14.40
2023-05-08T23:23:59.046Z,14.20
2023-05-08T23:26:26.032Z,14.10
2023-05-08T23:28:52.751Z,14.10
2023-05-08T23:31:19.429Z,14.10
2023-05-08T23:33:46.083Z,14.10
2023-05-08T23:36:12.724Z,14.20
2023-05-08T23:38:39.338Z,14.10
2023-05-08T23:41:05.965Z,14.10
2023-05-08T23:43:32.626Z,13.90
2023-05-08T23:45:59.332Z,13.90
2023-05-08T23:48:26.609Z,14.00
2023-05-08T23:50:53.408Z,13.80
2023-05-08T23:53:20.651Z,13.80
2023-05-08T23:55:50.638Z,13.70
2023-05-08T23:58:18.303Z,13.60
